createdAt,value
2018-07-13T00:00:23.710Z,19.00
2018-07-13T00:06:27.062Z,18.90
2018-07-13T00:12:30.516Z,18.90
2018-07-13T00:18:34.192Z,18.80
2018-07-13T00:24:37.596Z,18.70
2018-07-13T00:30:41.327Z,18.50
2018-07-13T00:36:44.814Z,18.40
2018-07-13T00:42:48.033Z,18.30
2018-07-13T00:48:52.145Z,18.30
2018-07-13T00:54:56.393Z,18.20
2018-07-13T01:00:59.930Z,18.10
2018-07-13T01:07:03.663Z,18.00
2018-07-13T01:13:07.274Z,18.00
2018-07-13T01:19:10.926Z,17.90
2018-07-13T01:25:14.387Z,17.90
2018-07-13T01:31:17.646Z,17.80
2018-07-13T01:37:20.931Z,17.70
2018-07-13T01:43:25.070Z,17.60
2018-07-13T01:49:28.484Z,17.60
2018-07-13T01:55:31.849Z,17.50
2018-07-13T02:01:35.166Z,17.40
2018-07-13T02:07:38.792Z,17.40
2018-07-13T02:13:42.211Z,17.40
2018-07-13T02:19:45.941Z,17.30
2018-07-13T02:25:49.203Z,17.30
2018-07-13T02:31:52.521Z,17.20
2018-07-13T02:37:55.973Z,17.20
2018-07-13T02:43:59.281Z,17.10
2018-07-13T02:50:03.099Z,17.10
2018-07-13T02:56:06.652Z,17.00
2018-07-13T03:02:10.183Z,17.00
2018-07-13T03:08:13.833Z,16.90
2018-07-13T03:14:17.331Z,16.80
2018-07-13T03:20:20.875Z,16.80
2018-07-13T03:26:24.134Z,16.70
2018-07-13T03:32:27.722Z,16.70
2018-07-13T03:38:31.190Z,16.70
2018-07-13T03:44:34.767Z,16.60
2018-07-13T03:50:38.410Z,16.60
2018-07-13T03:56:41.684Z,16.60
2018-07-13T04:02:45.460Z,16.70
2018-07-13T04:08:49.195Z,16.70
2018-07-13T04:14:52.562Z,16.70
2018-07-13T04:20:59.094Z,16.70
2018-07-13T04:27:02.551Z,16.70
2018-07-13T04:33:05.936Z,16.80
2018-07-13T04:39:10.961Z,16.80
2018-07-13T04:45:14.482Z,16.90
2018-07-13T04:51:24.167Z,16.90
2018-07-13T04:57:27.566Z,16.90
2018-07-13T05:03:31.236Z,17.00
2018-07-13T05:09:34.687Z,17.10
2018-07-13T05:15:38.262Z,17.10
2018-07-13T05:21:41.673Z,17.20
2018-07-13T05:27:45.954Z,17.20
2018-07-13T05:33:49.576Z,17.40
2018-07-13T05:39:53.415Z,17.50
2018-07-13T05:45:56.998Z,17.60
2018-07-13T05:52:00.637Z,17.70
2018-07-13T05:58:04.206Z,17.80
2018-07-13T06:04:07.942Z,17.80
2018-07-13T06:10:12.024Z,17.90
2018-07-13T06:16:16.320Z,18.00
2018-07-13T06:22:20.110Z,18.10
2018-07-13T06:28:23.866Z,18.30
2018-07-13T06:34:27.883Z,18.40
2018-07-13T06:40:32.269Z,18.40
2018-07-13T06:46:38.794Z,18.60
2018-07-13T06:52:42.557Z,18.70
2018-07-13T06:58:59.814Z,18.90
2018-07-13T07:06:15.460Z,19.30
2018-07-13T07:13:05.485Z,19.90
2018-07-13T07:19:10.614Z,20.20
2018-07-13T07:25:14.134Z,20.30
2018-07-13T07:31:17.680Z,20.30
2018-07-13T07:37:21.559Z,20.30
2018-07-13T07:43:25.302Z,20.20
2018-07-13T07:49:29.036Z,20.20
2018-07-13T07:55:32.596Z,20.30
2018-07-13T08:01:36.048Z,20.30
2018-07-13T08:07:39.627Z,20.30
2018-07-13T08:13:43.609Z,20.40
2018-07-13T08:19:46.978Z,20.50
2018-07-13T08:25:51.591Z,20.70
2018-07-13T08:31:55.007Z,20.80
2018-07-13T08:37:59.939Z,20.90
2018-07-13T08:44:05.553Z,21.00
2018-07-13T08:50:09.127Z,21.00
2018-07-13T08:56:13.044Z,21.10
2018-07-13T09:02:17.094Z,21.30
2018-07-13T09:08:20.905Z,21.50
2018-07-13T09:14:24.415Z,21.70
2018-07-13T09:20:27.912Z,21.80
2018-07-13T09:26:32.161Z,21.90
2018-07-13T09:32:35.922Z,21.90
2018-07-13T09:38:39.834Z,22.10
2018-07-13T09:44:43.740Z,22.20
2018-07-13T09:50:47.199Z,22.50
2018-07-13T09:56:50.607Z,22.70
2018-07-13T10:02:54.245Z,22.80
2018-07-13T10:08:57.800Z,22.80
2018-07-13T10:15:01.366Z,23.00
2018-07-13T10:21:06.986Z,23.20
2018-07-13T10:27:11.431Z,23.20
2018-07-13T10:33:17.727Z,23.20
2018-07-13T10:39:21.973Z,23.40
2018-07-13T10:45:25.462Z,23.60
2018-07-13T10:51:28.995Z,23.90
2018-07-13T10:57:32.495Z,24.10
2018-07-13T11:03:36.012Z,24.20
2018-07-13T11:09:39.308Z,24.30
2018-07-13T11:15:43.723Z,24.50
2018-07-13T11:21:47.323Z,24.60
2018-07-13T11:27:51.019Z,24.70
2018-07-13T11:33:54.773Z,24.90
2018-07-13T11:39:58.312Z,24.90
2018-07-13T11:46:02.054Z,25.10
2018-07-13T11:52:05.877Z,25.30
2018-07-13T11:58:09.230Z,25.40
2018-07-13T12:04:12.584Z,25.60
2018-07-13T12:10:16.522Z,25.80
2018-07-13T12:16:20.057Z,25.90
2018-07-13T12:22:23.602Z,26.00
2018-07-13T12:28:26.903Z,26.10
2018-07-13T12:34:30.955Z,26.20
2018-07-13T12:40:34.978Z,26.30
2018-07-13T12:46:38.553Z,26.40
2018-07-13T12:52:42.096Z,26.50
2018-07-13T12:58:45.677Z,26.70
2018-07-13T13:04:49.185Z,26.80
2018-07-13T13:10:52.685Z,27.00
2018-07-13T13:16:56.227Z,27.20
2018-07-13T13:22:59.629Z,27.40
2018-07-13T13:29:04.165Z,27.60
2018-07-13T13:35:07.602Z,27.40
2018-07-13T13:41:11.021Z,27.50
2018-07-13T13:47:15.383Z,27.60
2018-07-13T13:53:18.906Z,27.60
2018-07-13T13:59:22.294Z,27.80
2018-07-13T14:05:26.687Z,27.90
2018-07-13T14:11:29.979Z,28.20
2018-07-13T14:17:33.342Z,28.30
2018-07-13T14:23:39.015Z,28.50
2018-07-13T14:29:42.623Z,28.90
2018-07-13T14:35:46.351Z,29.20
2018-07-13T14:41:56.446Z,29.40
2018-07-13T14:47:59.959Z,29.70
2018-07-13T14:54:03.889Z,30.20
2018-07-13T15:00:07.480Z,30.60
2018-07-13T15:06:11.336Z,30.90
2018-07-13T15:12:15.605Z,31.30
2018-07-13T15:18:19.096Z,30.90
2018-07-13T15:24:22.434Z,30.90
2018-07-13T15:30:26.010Z,31.00
2018-07-13T15:36:29.352Z,30.80
2018-07-13T15:42:33.099Z,31.00
2018-07-13T15:48:36.775Z,31.50
2018-07-13T15:54:40.413Z,31.90
2018-07-13T16:00:44.078Z,31.40
2018-07-13T16:06:47.490Z,31.30
2018-07-13T16:12:50.970Z,31.70
2018-07-13T16:18:54.630Z,31.70
2018-07-13T16:24:58.289Z,31.90
2018-07-13T16:31:03.171Z,31.50
2018-07-13T16:37:06.659Z,30.40
2018-07-13T16:43:10.482Z,30.00
2018-07-13T16:49:14.093Z,29.60
2018-07-13T16:55:19.441Z,29.40
2018-07-13T17:01:22.919Z,29.20
2018-07-13T17:07:26.427Z,29.10
2018-07-13T17:13:29.871Z,29.00
2018-07-13T17:19:39.897Z,28.90
2018-07-13T17:25:43.396Z,28.80
2018-07-13T17:31:46.881Z,28.70
2018-07-13T17:37:51.646Z,28.60
2018-07-13T17:43:55.542Z,28.50
2018-07-13T17:49:59.479Z,28.50
2018-07-13T17:56:03.777Z,28.30
2018-07-13T18:02:07.364Z,28.20
2018-07-13T18:08:11.838Z,28.10
2018-07-13T18:14:15.352Z,28.00
2018-07-13T18:20:19.028Z,27.80
2018-07-13T18:26:23.964Z,27.70
2018-07-13T18:32:27.327Z,27.50
2018-07-13T18:38:30.678Z,27.40
2018-07-13T18:44:35.408Z,27.30
2018-07-13T18:50:39.197Z,27.10
2018-07-13T18:56:42.966Z,26.90
2018-07-13T19:02:46.579Z,26.80
2018-07-13T19:08:50.235Z,26.70
2018-07-13T19:14:54.423Z,26.40
2018-07-13T19:20:58.007Z,26.10
2018-07-13T19:27:01.631Z,25.80
2018-07-13T19:33:05.225Z,25.60
2018-07-13T19:39:09.456Z,25.50
2018-07-13T19:45:12.986Z,25.30
2018-07-13T19:51:16.677Z,25.00
2018-07-13T19:57:20.082Z,24.90
2018-07-13T20:03:30.507Z,24.70
2018-07-13T20:09:34.025Z,24.40
2018-07-13T20:15:37.378Z,24.30
2018-07-13T20:21:41.535Z,24.20
2018-07-13T20:27:45.033Z,24.30
2018-07-13T20:33:48.560Z,24.30
2018-07-13T20:39:52.388Z,24.20
2018-07-13T20:45:55.756Z,23.70
2018-07-13T20:51:59.334Z,23.30
2018-07-13T20:58:02.860Z,23.30
2018-07-13T21:04:06.417Z,23.30
2018-07-13T21:10:10.050Z,23.30
2018-07-13T21:16:13.572Z,23.20
2018-07-13T21:22:17.049Z,23.10
2018-07-13T21:28:21.179Z,23.00
2018-07-13T21:34:24.961Z,22.80
2018-07-13T21:40:28.411Z,22.70
2018-07-13T21:46:31.866Z,22.60
2018-07-13T21:52:35.306Z,22.40
2018-07-13T21:58:39.074Z,22.30
2018-07-13T22:04:42.819Z,22.10
2018-07-13T22:10:46.308Z,22.00
2018-07-13T22:16:49.630Z,21.90
2018-07-13T22:22:53.076Z,21.90
2018-07-13T22:28:56.673Z,21.80
2018-07-13T22:35:00.280Z,21.70
2018-07-13T22:41:03.942Z,21.60
2018-07-13T22:47:07.447Z,21.50
2018-07-13T22:53:10.957Z,21.40
2018-07-13T22:59:14.437Z,21.40
2018-07-13T23:05:17.743Z,21.30
2018-07-13T23:11:21.382Z,21.20
2018-07-13T23:17:24.903Z,21.10
2018-07-13T23:23:28.279Z,21.00
2018-07-13T23:29:31.779Z,21.00
2018-07-13T23:35:35.973Z,20.90
2018-07-13T23:41:39.391Z,20.80
2018-07-13T23:47:43.148Z,20.70
2018-07-13T23:53:46.428Z,20.50
2018-07-13T23:59:50.830Z,20.50
